createdAt,value
2018-12-07T00:00:14.900Z,1007.40
2018-12-07T00:02:07.879Z,1007.39
2018-12-07T00:03:07.939Z,1007.33
2018-12-07T00:05:00.931Z,1007.38
2018-12-07T00:06:00.980Z,1007.31
2018-12-07T00:07:53.972Z,1007.35
2018-12-07T00:08:54.021Z,1007.27
2018-12-07T00:10:47.002Z,1007.26
2018-12-07T00:11:47.064Z,1007.26
2018-12-07T00:13:40.050Z,1007.22
2018-12-07T00:14:40.099Z,1007.26
2018-12-07T00:16:33.085Z,1007.22
2018-12-07T00:17:33.140Z,1007.25
2018-12-07T00:19:26.129Z,1007.14
2018-12-07T00:20:26.237Z,1007.18
2018-12-07T00:22:19.165Z,1007.13
2018-12-07T00:23:19.224Z,1007.16
2018-12-07T00:25:12.216Z,1007.12
2018-12-07T00:26:12.266Z,1007.15
2018-12-07T00:28:05.250Z,1007.08
2018-12-07T00:29:05.300Z,1007.08
2018-12-07T00:30:58.280Z,1007.09
2018-12-07T00:31:58.339Z,1007.11
2018-12-07T00:33:51.331Z,1007.08
2018-12-07T00:34:51.377Z,1007.07
2018-12-07T00:36:44.358Z,1006.99
2018-12-07T00:37:44.419Z,1007.01
2018-12-07T00:39:37.408Z,1006.95
2018-12-07T00:40:37.463Z,1006.99
2018-12-07T00:42:30.441Z,1006.93
2018-12-07T00:43:30.497Z,1006.90
2018-12-07T00:45:23.485Z,1006.93
2018-12-07T00:46:23.537Z,1006.94
2018-12-07T00:48:16.529Z,1006.98
2018-12-07T00:49:16.579Z,1006.98
2018-12-07T00:51:09.566Z,1006.95
2018-12-07T00:52:09.623Z,1006.95
2018-12-07T00:54:02.609Z,1006.96
2018-12-07T00:55:02.663Z,1006.90
2018-12-07T00:56:55.647Z,1006.92
2018-12-07T00:57:55.782Z,1006.82
2018-12-07T00:59:48.701Z,1006.87
2018-12-07T01:00:48.779Z,1006.87
2018-12-07T01:02:41.732Z,1006.84
2018-12-07T01:03:41.789Z,1006.84
2018-12-07T01:05:34.777Z,1006.75
2018-12-07T01:06:34.838Z,1006.75
2018-12-07T01:08:27.816Z,1006.71
2018-12-07T01:09:27.866Z,1006.70
2018-12-07T01:11:20.850Z,1006.60
2018-12-07T01:12:20.906Z,1006.65
2018-12-07T01:14:13.897Z,1006.67
2018-12-07T01:15:13.947Z,1006.59
2018-12-07T01:17:06.926Z,1006.60
2018-12-07T01:18:06.982Z,1006.51
2018-12-07T01:19:59.971Z,1006.50
2018-12-07T01:21:00.022Z,1006.47
2018-12-07T01:22:53.003Z,1006.49
2018-12-07T01:23:53.060Z,1006.46
2018-12-07T01:25:46.054Z,1006.42
2018-12-07T01:26:46.107Z,1006.43
2018-12-07T01:28:39.093Z,1006.40
2018-12-07T01:29:39.144Z,1006.36
2018-12-07T01:31:32.128Z,1006.37
2018-12-07T01:32:32.186Z,1006.37
2018-12-07T01:34:25.173Z,1006.38
2018-12-07T01:35:25.225Z,1006.32
2018-12-07T01:37:18.208Z,1006.29
2018-12-07T01:38:18.268Z,1006.28
2018-12-07T01:40:11.257Z,1006.34
2018-12-07T01:41:11.306Z,1006.35
2018-12-07T01:43:04.285Z,1006.30
2018-12-07T01:44:04.345Z,1006.33
2018-12-07T01:45:57.330Z,1006.20
2018-12-07T01:46:57.385Z,1006.26
2018-12-07T01:48:50.373Z,1006.24
2018-12-07T01:49:50.420Z,1006.21
2018-12-07T01:51:43.400Z,1006.24
2018-12-07T01:52:43.458Z,1006.22
2018-12-07T01:54:36.450Z,1006.21
2018-12-07T01:55:36.497Z,1006.22
2018-12-07T01:57:29.478Z,1006.20
2018-12-07T01:58:29.536Z,1006.17
2018-12-07T02:00:22.522Z,1006.19
2018-12-07T02:01:22.574Z,1006.14
2018-12-07T02:03:15.571Z,1006.14
2018-12-07T02:04:15.612Z,1006.13
2018-12-07T02:06:08.604Z,1006.12
2018-12-07T02:07:08.652Z,1006.13
2018-12-07T02:09:01.637Z,1006.12
2018-12-07T02:10:01.690Z,1006.13
2018-12-07T02:11:54.670Z,1006.07
2018-12-07T02:12:54.728Z,1006.06
2018-12-07T02:14:47.720Z,1006.01
2018-12-07T02:15:47.775Z,1006.02
2018-12-07T02:17:40.756Z,1006.06
2018-12-07T02:18:40.813Z,1005.96
2018-12-07T02:20:33.801Z,1005.96
2018-12-07T02:21:33.858Z,1005.93
2018-12-07T02:23:26.831Z,1005.91
2018-12-07T02:24:26.887Z,1005.86
2018-12-07T02:26:19.880Z,1005.86
2018-12-07T02:27:19.928Z,1005.82
2018-12-07T02:29:12.913Z,1005.82
2018-12-07T02:30:12.967Z,1005.81
2018-12-07T02:32:05.948Z,1005.83
2018-12-07T02:33:06.005Z,1005.83
2018-12-07T02:34:58.997Z,1005.79
2018-12-07T02:35:59.047Z,1005.79
2018-12-07T02:37:52.025Z,1005.74
2018-12-07T02:38:52.085Z,1005.72
2018-12-07T02:40:45.071Z,1005.72
2018-12-07T02:41:45.122Z,1005.74
2018-12-07T02:43:38.102Z,1005.68
2018-12-07T02:44:38.158Z,1005.67
2018-12-07T02:46:31.151Z,1005.65
2018-12-07T02:47:31.197Z,1005.59
2018-12-07T02:49:24.184Z,1005.57
2018-12-07T02:50:24.237Z,1005.58
2018-12-07T02:52:17.216Z,1005.61
2018-12-07T02:53:17.276Z,1005.55
2018-12-07T02:55:10.260Z,1005.47
2018-12-07T02:56:10.312Z,1005.44
2018-12-07T02:58:03.291Z,1005.42
2018-12-07T02:59:03.352Z,1005.43
2018-12-07T03:00:56.340Z,1005.42
2018-12-07T03:01:56.388Z,1005.38
2018-12-07T03:03:49.883Z,1005.37
2018-12-07T03:04:49.947Z,1005.41
2018-12-07T03:06:42.933Z,1005.35
2018-12-07T03:07:42.981Z,1005.38
2018-12-07T03:09:35.978Z,1005.34
2018-12-07T03:10:36.024Z,1005.36
2018-12-07T03:12:29.006Z,1005.33
2018-12-07T03:13:29.060Z,1005.38
2018-12-07T03:15:22.047Z,1005.33
2018-12-07T03:16:22.099Z,1005.34
2018-12-07T03:18:15.080Z,1005.37
2018-12-07T03:19:15.141Z,1005.35
2018-12-07T03:21:08.129Z,1005.38
2018-12-07T03:22:08.182Z,1005.35
2018-12-07T03:24:01.158Z,1005.36
2018-12-07T03:25:01.215Z,1005.32
2018-12-07T03:26:54.207Z,1005.32
2018-12-07T03:27:54.260Z,1005.29
2018-12-07T03:29:47.246Z,1005.28
2018-12-07T03:30:47.300Z,1005.20
2018-12-07T03:32:40.276Z,1005.20
2018-12-07T03:33:40.339Z,1005.23
2018-12-07T03:35:33.328Z,1005.15
2018-12-07T03:36:33.375Z,1005.12
2018-12-07T03:38:26.354Z,1005.10
2018-12-07T03:39:26.414Z,1005.13
2018-12-07T03:41:19.403Z,1005.05
2018-12-07T03:42:19.459Z,1005.03
2018-12-07T03:44:12.440Z,1004.96
2018-12-07T03:45:12.495Z,1004.99
2018-12-07T03:47:05.481Z,1004.96
2018-12-07T03:48:05.530Z,1004.96
2018-12-07T03:49:58.534Z,1004.94
2018-12-07T03:50:58.569Z,1004.94
2018-12-07T03:52:51.555Z,1004.86
2018-12-07T03:53:51.614Z,1004.89
2018-12-07T03:55:44.600Z,1004.86
2018-12-07T03:56:44.652Z,1004.83
2018-12-07T03:58:37.637Z,1004.77
2018-12-07T03:59:37.697Z,1004.77
2018-12-07T04:01:30.699Z,1004.73
2018-12-07T04:02:30.734Z,1004.73
2018-12-07T04:04:24.224Z,1004.72
2018-12-07T04:05:24.281Z,1004.68
2018-12-07T04:07:17.272Z,1004.68
2018-12-07T04:08:17.321Z,1004.69
2018-12-07T04:10:10.314Z,1004.63
2018-12-07T04:11:10.365Z,1004.59
2018-12-07T04:13:03.349Z,1004.57
2018-12-07T04:14:03.520Z,1004.58
2018-12-07T04:15:56.398Z,1004.58
2018-12-07T04:16:56.448Z,1004.57
2018-12-07T04:18:49.430Z,1004.62
2018-12-07T04:19:49.492Z,1004.58
2018-12-07T04:21:42.479Z,1004.56
2018-12-07T04:22:42.529Z,1004.55
2018-12-07T04:24:35.508Z,1004.45
2018-12-07T04:25:35.563Z,1004.47
2018-12-07T04:27:28.551Z,1004.47
2018-12-07T04:28:28.606Z,1004.46
2018-12-07T04:30:21.598Z,1004.45
2018-12-07T04:31:21.647Z,1004.44
2018-12-07T04:33:14.629Z,1004.38
2018-12-07T04:34:14.685Z,1004.42
2018-12-07T04:36:07.952Z,1004.36
2018-12-07T04:37:07.728Z,1004.37
2018-12-07T04:39:00.710Z,1004.35
2018-12-07T04:40:00.764Z,1004.35
2018-12-07T04:41:53.752Z,1004.33
2018-12-07T04:42:53.809Z,1004.34
2018-12-07T04:44:46.786Z,1004.32
2018-12-07T04:45:46.842Z,1004.28
2018-12-07T04:47:39.833Z,1004.34
2018-12-07T04:48:39.879Z,1004.33
2018-12-07T04:50:33.037Z,1004.33
2018-12-07T04:51:32.929Z,1004.28
2018-12-07T04:53:25.960Z,1004.32
2018-12-07T04:54:25.959Z,1004.28
2018-12-07T04:56:18.944Z,1004.28
2018-12-07T04:57:18.997Z,1004.29
2018-12-07T04:59:11.977Z,1004.25
2018-12-07T05:00:12.044Z,1004.27
2018-12-07T05:02:05.095Z,1004.24
2018-12-07T05:03:05.076Z,1004.22
2018-12-07T05:04:58.566Z,1004.22
2018-12-07T05:05:58.626Z,1004.17
2018-12-07T05:07:51.609Z,1004.19
2018-12-07T05:08:51.660Z,1004.15
2018-12-07T05:10:44.920Z,1004.15
2018-12-07T05:11:44.699Z,1004.16
2018-12-07T05:13:37.682Z,1004.09
2018-12-07T05:14:37.735Z,1004.12
2018-12-07T05:16:30.728Z,1004.06
2018-12-07T05:17:30.777Z,1004.08
2018-12-07T05:19:23.756Z,1004.03
2018-12-07T05:20:23.827Z,1004.07
2018-12-07T05:22:16.802Z,1004.02
2018-12-07T05:23:16.853Z,1004.01
2018-12-07T05:25:09.857Z,1003.94
2018-12-07T05:26:09.918Z,1003.91
2018-12-07T05:28:02.904Z,1003.89
2018-12-07T05:29:02.956Z,1003.88
2018-12-07T05:30:56.065Z,1003.82
2018-12-07T05:31:56.047Z,1003.84
2018-12-07T05:33:48.976Z,1003.75
2018-12-07T05:34:49.033Z,1003.78
2018-12-07T05:36:42.018Z,1003.72
2018-12-07T05:37:42.067Z,1003.71
2018-12-07T05:39:35.056Z,1003.67
2018-12-07T05:40:35.109Z,1003.66
2018-12-07T05:42:28.098Z,1003.71
2018-12-07T05:43:28.148Z,1003.64
2018-12-07T05:45:21.134Z,1003.58
2018-12-07T05:46:21.186Z,1003.59
2018-12-07T05:48:14.193Z,1003.55
2018-12-07T05:49:14.246Z,1003.52
2018-12-07T05:51:07.231Z,1003.48
2018-12-07T05:52:07.284Z,1003.49
2018-12-07T05:54:00.270Z,1003.49
2018-12-07T05:55:00.329Z,1003.49
2018-12-07T05:56:53.325Z,1003.40
2018-12-07T05:57:53.383Z,1003.37
2018-12-07T05:59:46.362Z,1003.37
2018-12-07T06:00:46.419Z,1003.34
2018-12-07T06:02:39.404Z,1003.27
2018-12-07T06:03:39.455Z,1003.26
2018-12-07T06:05:32.436Z,1003.24
2018-12-07T06:06:32.494Z,1003.20
2018-12-07T06:08:25.487Z,1003.23
2018-12-07T06:09:25.538Z,1003.21
2018-12-07T06:11:18.519Z,1003.20
2018-12-07T06:12:18.573Z,1003.17
2018-12-07T06:14:11.577Z,1003.19
2018-12-07T06:15:11.629Z,1003.14
2018-12-07T06:17:04.614Z,1003.21
2018-12-07T06:18:04.667Z,1003.17
2018-12-07T06:19:57.646Z,1003.15
2018-12-07T06:20:57.706Z,1003.18
2018-12-07T06:22:50.690Z,1003.17
2018-12-07T06:23:50.740Z,1003.16
2018-12-07T06:25:43.722Z,1003.14
2018-12-07T06:26:43.781Z,1003.13
2018-12-07T06:28:36.766Z,1003.09
2018-12-07T06:29:36.818Z,1003.11
2018-12-07T06:31:29.814Z,1003.13
2018-12-07T06:32:36.170Z,1003.11
2018-12-07T06:34:22.845Z,1003.08
2018-12-07T06:35:22.902Z,1003.05
2018-12-07T06:37:15.892Z,1003.07
2018-12-07T06:38:15.941Z,1003.02
2018-12-07T06:40:08.926Z,1003.05
2018-12-07T06:41:08.978Z,1002.98
2018-12-07T06:43:01.965Z,1002.91
2018-12-07T06:44:02.016Z,1002.92
2018-12-07T06:45:54.998Z,1002.84
2018-12-07T06:46:55.055Z,1002.88
2018-12-07T06:48:48.041Z,1002.86
2018-12-07T06:49:48.093Z,1002.82
2018-12-07T06:51:41.088Z,1002.78
2018-12-07T06:52:41.131Z,1002.71
2018-12-07T06:54:34.313Z,1002.73
2018-12-07T06:55:34.371Z,1002.72
2018-12-07T06:57:27.365Z,1002.66
2018-12-07T06:58:27.409Z,1002.65
2018-12-07T07:00:20.396Z,1002.64
2018-12-07T07:01:20.459Z,1002.67
2018-12-07T07:03:13.445Z,1002.57
2018-12-07T07:04:13.497Z,1002.58
2018-12-07T07:06:06.473Z,1002.57
2018-12-07T07:07:06.547Z,1002.54
2018-12-07T07:08:59.525Z,1002.57
2018-12-07T07:09:59.572Z,1002.56
2018-12-07T07:11:52.559Z,1002.57
2018-12-07T07:12:52.613Z,1002.59
2018-12-07T07:14:45.592Z,1002.56
2018-12-07T07:15:45.649Z,1002.52
2018-12-07T07:17:38.636Z,1002.52
2018-12-07T07:18:38.687Z,1002.50
2018-12-07T07:20:31.671Z,1002.52
2018-12-07T07:21:31.728Z,1002.48
2018-12-07T07:23:24.724Z,1002.50
2018-12-07T07:24:24.785Z,1002.45
2018-12-07T07:26:17.755Z,1002.43
2018-12-07T07:27:17.813Z,1002.41
2018-12-07T07:29:10.804Z,1002.43
2018-12-07T07:30:10.850Z,1002.43
2018-12-07T07:32:03.840Z,1002.39
2018-12-07T07:33:03.888Z,1002.34
2018-12-07T07:34:56.873Z,1002.36
2018-12-07T07:35:56.930Z,1002.37
2018-12-07T07:37:49.927Z,1002.36
2018-12-07T07:38:49.982Z,1002.33
2018-12-07T07:40:42.959Z,1002.36
2018-12-07T07:41:43.018Z,1002.37
2018-12-07T07:43:36.010Z,1002.33
2018-12-07T07:44:36.126Z,1002.34
2018-12-07T07:46:29.039Z,1002.31
2018-12-07T07:47:29.100Z,1002.31
2018-12-07T07:49:22.083Z,1002.27
2018-12-07T07:50:22.134Z,1002.24
2018-12-07T07:52:15.126Z,1002.23
2018-12-07T07:53:15.172Z,1002.24
2018-12-07T07:55:08.160Z,1002.18
2018-12-07T07:56:15.189Z,1002.20
2018-12-07T07:58:01.204Z,1002.15
2018-12-07T07:59:01.256Z,1002.17
2018-12-07T08:00:54.236Z,1002.15
2018-12-07T08:01:54.294Z,1002.11
2018-12-07T08:03:47.283Z,1002.09
2018-12-07T08:04:47.332Z,1002.16
2018-12-07T08:06:40.315Z,1002.10
2018-12-07T08:07:40.442Z,1002.06
2018-12-07T08:09:33.363Z,1002.06
2018-12-07T08:10:33.410Z,1002.03
2018-12-07T08:12:26.397Z,1002.02
2018-12-07T08:13:26.451Z,1002.00
2018-12-07T08:15:19.429Z,1001.95
2018-12-07T08:16:19.488Z,1001.96
2018-12-07T08:18:12.478Z,1001.94
2018-12-07T08:19:12.531Z,1001.92
2018-12-07T08:21:05.511Z,1001.92
2018-12-07T08:22:05.569Z,1001.96
2018-12-07T08:23:58.555Z,1001.89
2018-12-07T08:24:58.607Z,1001.90
2018-12-07T08:26:51.590Z,1001.91
2018-12-07T08:27:51.643Z,1001.90
2018-12-07T08:29:44.635Z,1001.85
2018-12-07T08:30:44.680Z,1001.86
2018-12-07T08:32:37.672Z,1001.85
2018-12-07T08:33:37.721Z,1001.89
2018-12-07T08:35:30.703Z,1001.84
2018-12-07T08:36:30.758Z,1001.81
2018-12-07T08:38:23.750Z,1001.75
2018-12-07T08:39:23.798Z,1001.77
2018-12-07T08:41:16.781Z,1001.72
2018-12-07T08:42:16.842Z,1001.72
2018-12-07T08:44:09.833Z,1001.73
2018-12-07T08:45:09.885Z,1001.65
2018-12-07T08:47:02.887Z,1001.62
2018-12-07T08:48:02.943Z,1001.64
2018-12-07T08:49:55.990Z,1001.60
2018-12-07T08:50:55.980Z,1001.58
2018-12-07T08:52:48.974Z,1001.55
2018-12-07T08:53:49.022Z,1001.58
2018-12-07T08:55:42.000Z,1001.53
2018-12-07T08:56:42.060Z,1001.50
2018-12-07T08:58:35.045Z,1001.40
2018-12-07T08:59:35.097Z,1001.46
2018-12-07T09:01:28.078Z,1001.43
2018-12-07T09:02:28.136Z,1001.42
2018-12-07T09:04:21.636Z,1001.42
2018-12-07T09:05:21.681Z,1001.36
2018-12-07T09:07:14.663Z,1001.34
2018-12-07T09:08:15.379Z,1001.34
2018-12-07T09:10:07.717Z,1001.35
2018-12-07T09:11:07.764Z,1001.27
2018-12-07T09:13:00.750Z,1001.30
2018-12-07T09:14:00.803Z,1001.28
2018-12-07T09:15:53.784Z,1001.26
2018-12-07T09:16:53.839Z,1001.20
2018-12-07T09:18:46.827Z,1001.24
2018-12-07T09:19:46.878Z,1001.12
2018-12-07T09:21:39.861Z,1001.20
2018-12-07T09:22:39.916Z,1001.13
2018-12-07T09:24:32.906Z,1001.12
2018-12-07T09:25:32.958Z,1001.14
2018-12-07T09:27:25.942Z,1001.09
2018-12-07T09:28:26.077Z,1001.12
2018-12-07T09:30:18.990Z,1001.09
2018-12-07T09:31:19.039Z,1001.05
2018-12-07T09:33:12.026Z,1001.07
2018-12-07T09:34:12.072Z,1000.95
2018-12-07T09:36:05.062Z,1000.95
2018-12-07T09:37:05.122Z,1000.87
2018-12-07T09:38:58.107Z,1000.92
2018-12-07T09:39:58.159Z,1000.86
2018-12-07T09:41:51.143Z,1000.88
2018-12-07T09:42:51.211Z,1000.85
2018-12-07T09:44:44.188Z,1000.81
2018-12-07T09:45:44.239Z,1000.75
2018-12-07T09:47:37.221Z,1000.75
2018-12-07T09:48:37.279Z,1000.75
2018-12-07T09:50:30.272Z,1000.79
2018-12-07T09:51:30.317Z,1000.77
2018-12-07T09:53:23.302Z,1000.74
2018-12-07T09:54:23.359Z,1000.75
2018-12-07T09:56:16.340Z,1000.71
2018-12-07T09:57:16.399Z,1000.69
2018-12-07T09:59:09.396Z,1000.65
2018-12-07T10:00:09.434Z,1000.60
2018-12-07T10:02:02.423Z,1000.59
2018-12-07T10:03:02.475Z,1000.53
2018-12-07T10:04:55.976Z,1000.52
2018-12-07T10:05:56.133Z,1000.48
2018-12-07T10:07:49.009Z,1000.39
2018-12-07T10:08:49.068Z,1000.42
2018-12-07T10:10:42.055Z,1000.37
2018-12-07T10:11:42.125Z,1000.41
2018-12-07T10:13:35.091Z,1000.36
2018-12-07T10:14:35.143Z,1000.33
2018-12-07T10:16:28.140Z,1000.30
2018-12-07T10:17:28.187Z,1000.26
2018-12-07T10:19:21.179Z,1000.26
2018-12-07T10:20:21.227Z,1000.20
2018-12-07T10:22:14.211Z,1000.11
2018-12-07T10:23:14.318Z,1000.05
2018-12-07T10:25:07.254Z,1000.04
2018-12-07T10:26:07.303Z,1000.01
2018-12-07T10:28:00.298Z,1000.06
2018-12-07T10:29:00.351Z,999.97
2018-12-07T10:30:53.341Z,999.94
2018-12-07T10:31:53.393Z,999.91
2018-12-07T10:33:46.376Z,999.84
2018-12-07T10:34:46.452Z,999.84
2018-12-07T10:36:39.408Z,999.80
2018-12-07T10:37:39.472Z,999.82
2018-12-07T10:39:32.458Z,999.77
2018-12-07T10:40:32.505Z,999.73
2018-12-07T10:42:25.484Z,999.69
2018-12-07T10:43:25.543Z,999.65
2018-12-07T10:45:18.537Z,999.58
2018-12-07T10:46:18.586Z,999.54
2018-12-07T10:48:11.564Z,999.49
2018-12-07T10:49:11.622Z,999.50
2018-12-07T10:51:07.905Z,999.43
2018-12-07T10:52:04.658Z,999.41
2018-12-07T10:53:57.657Z,999.32
2018-12-07T10:54:57.709Z,999.30
2018-12-07T10:56:50.692Z,999.32
2018-12-07T10:57:50.746Z,999.27
2018-12-07T10:59:43.734Z,999.30
2018-12-07T11:00:43.785Z,999.23
2018-12-07T11:02:38.155Z,999.20
2018-12-07T11:03:36.825Z,999.20
2018-12-07T11:05:29.810Z,999.19
2018-12-07T11:06:29.860Z,999.07
2018-12-07T11:08:22.841Z,999.06
2018-12-07T11:09:22.899Z,999.03
2018-12-07T11:11:15.887Z,999.06
2018-12-07T11:12:15.939Z,998.98
2018-12-07T11:14:08.925Z,998.95
2018-12-07T11:15:08.976Z,998.88
2018-12-07T11:17:01.967Z,998.84
2018-12-07T11:18:02.024Z,998.73
2018-12-07T11:19:55.009Z,998.70
2018-12-07T11:20:55.065Z,998.76
2018-12-07T11:22:48.042Z,998.73
2018-12-07T11:23:48.102Z,998.65
2018-12-07T11:25:41.086Z,998.58
2018-12-07T11:26:41.138Z,998.52
2018-12-07T11:28:34.118Z,998.54
2018-12-07T11:29:34.176Z,998.52
2018-12-07T11:31:27.167Z,998.56
2018-12-07T11:32:27.215Z,998.55
2018-12-07T11:34:20.213Z,998.56
2018-12-07T11:35:20.257Z,998.48
2018-12-07T11:37:13.234Z,998.48
2018-12-07T11:38:13.294Z,998.36
2018-12-07T11:40:06.344Z,998.30
2018-12-07T11:41:06.338Z,998.20
2018-12-07T11:42:59.314Z,998.18
2018-12-07T11:43:59.373Z,998.19
2018-12-07T11:45:52.363Z,998.18
2018-12-07T11:46:52.408Z,998.17
2018-12-07T11:48:45.392Z,998.19
2018-12-07T11:49:45.451Z,998.18
2018-12-07T11:51:38.436Z,997.96
2018-12-07T11:52:38.487Z,998.03
2018-12-07T11:54:31.471Z,997.95
2018-12-07T11:55:31.528Z,997.88
2018-12-07T11:57:24.524Z,997.78
2018-12-07T11:58:24.577Z,997.68
2018-12-07T12:00:17.583Z,997.61
2018-12-07T12:01:17.615Z,997.64
2018-12-07T12:03:10.600Z,997.56
2018-12-07T12:04:10.659Z,997.55
2018-12-07T12:06:03.644Z,997.46
2018-12-07T12:07:03.699Z,997.37
2018-12-07T12:08:56.678Z,997.33
2018-12-07T12:09:56.737Z,997.29
2018-12-07T12:11:49.725Z,997.11
2018-12-07T12:12:49.776Z,997.12
2018-12-07T12:14:42.759Z,997.09
2018-12-07T12:15:42.815Z,997.01
2018-12-07T12:17:35.804Z,997.00
2018-12-07T12:18:35.855Z,996.98
2018-12-07T12:20:28.842Z,996.98
2018-12-07T12:21:28.893Z,996.92
2018-12-07T12:23:21.873Z,996.84
2018-12-07T12:24:21.938Z,996.89
2018-12-07T12:26:14.919Z,996.86
2018-12-07T12:27:14.970Z,996.73
2018-12-07T12:29:07.955Z,996.71
2018-12-07T12:30:08.013Z,996.66
2018-12-07T12:32:00.998Z,996.55
2018-12-07T12:33:01.048Z,996.48
2018-12-07T12:34:54.027Z,996.43
2018-12-07T12:35:54.092Z,996.39
2018-12-07T12:37:47.083Z,996.35
2018-12-07T12:38:47.126Z,996.32
2018-12-07T12:40:40.120Z,996.23
2018-12-07T12:41:46.560Z,996.20
2018-12-07T12:43:33.151Z,996.14
2018-12-07T12:44:33.211Z,996.06
2018-12-07T12:46:26.204Z,995.98
2018-12-07T12:47:26.252Z,996.03
2018-12-07T12:49:19.233Z,995.99
2018-12-07T12:50:19.291Z,996.04
2018-12-07T12:52:12.283Z,996.02
2018-12-07T12:53:12.332Z,996.00
2018-12-07T12:55:05.314Z,995.98
2018-12-07T12:56:05.370Z,995.95
2018-12-07T12:57:58.365Z,995.88
2018-12-07T12:58:58.419Z,995.77
2018-12-07T13:00:51.404Z,995.74
2018-12-07T13:01:51.452Z,995.70
2018-12-07T13:03:44.433Z,995.67
2018-12-07T13:04:44.491Z,995.62
2018-12-07T13:06:37.482Z,995.57
2018-12-07T13:07:37.525Z,995.56
2018-12-07T13:09:30.510Z,995.50
2018-12-07T13:10:30.575Z,995.47
2018-12-07T13:12:23.555Z,995.43
2018-12-07T13:13:23.622Z,995.40
2018-12-07T13:15:16.599Z,995.30
2018-12-07T13:16:16.654Z,995.26
2018-12-07T13:18:09.646Z,995.26
2018-12-07T13:19:09.696Z,995.27
2018-12-07T13:21:02.687Z,995.21
2018-12-07T13:22:02.737Z,995.21
2018-12-07T13:23:55.722Z,995.13
2018-12-07T13:24:55.781Z,995.12
2018-12-07T13:26:48.762Z,995.09
2018-12-07T13:27:48.818Z,995.09
2018-12-07T13:29:41.799Z,994.98
2018-12-07T13:30:41.855Z,994.99
2018-12-07T13:32:34.846Z,994.84
2018-12-07T13:33:34.894Z,994.82
2018-12-07T13:35:27.877Z,994.81
2018-12-07T13:36:27.934Z,994.76
2018-12-07T13:38:20.924Z,994.64
2018-12-07T13:39:20.987Z,994.72
2018-12-07T13:41:13.961Z,994.68
2018-12-07T13:42:14.173Z,994.68
2018-12-07T13:44:07.032Z,994.67
2018-12-07T13:45:07.141Z,994.60
2018-12-07T13:47:00.201Z,994.55
2018-12-07T13:48:00.254Z,994.55
2018-12-07T13:49:53.198Z,994.48
2018-12-07T13:50:53.175Z,994.45
2018-12-07T13:52:46.206Z,994.43
2018-12-07T13:53:46.256Z,994.43
2018-12-07T13:55:39.291Z,994.38
2018-12-07T13:56:39.347Z,994.39
2018-12-07T13:58:32.295Z,994.32
2018-12-07T13:59:32.506Z,994.39
2018-12-07T14:01:25.283Z,994.34
2018-12-07T14:02:25.296Z,994.38
2018-12-07T14:04:18.809Z,994.31
2018-12-07T14:05:18.876Z,994.28
2018-12-07T14:07:11.947Z,994.30
2018-12-07T14:08:11.942Z,994.28
2018-12-07T14:10:04.910Z,994.26
2018-12-07T14:11:05.073Z,994.25
2018-12-07T14:12:57.923Z,994.26
2018-12-07T14:13:58.097Z,994.19
2018-12-07T14:15:51.018Z,994.22
2018-12-07T14:16:51.048Z,994.22
2018-12-07T14:18:44.008Z,994.15
2018-12-07T14:19:44.172Z,994.15
2018-12-07T14:21:37.215Z,994.11
2018-12-07T14:22:37.269Z,994.06
2018-12-07T14:24:30.091Z,993.98
2018-12-07T14:25:30.191Z,993.93
2018-12-07T14:27:23.123Z,993.88
2018-12-07T14:28:23.360Z,993.76
2018-12-07T14:30:16.207Z,993.77
2018-12-07T14:31:16.281Z,993.76
2018-12-07T14:33:09.203Z,993.70
2018-12-07T14:34:09.254Z,993.72
2018-12-07T14:36:02.230Z,993.69
2018-12-07T14:37:02.433Z,993.63
2018-12-07T14:38:55.304Z,993.57
2018-12-07T14:39:55.392Z,993.55
2018-12-07T14:41:48.373Z,993.53
2018-12-07T14:42:48.414Z,993.52
2018-12-07T14:44:41.395Z,993.52
2018-12-07T14:45:41.544Z,993.45
2018-12-07T14:47:34.515Z,993.45
2018-12-07T14:48:34.545Z,993.38
2018-12-07T14:50:27.507Z,993.44
2018-12-07T14:51:27.581Z,993.39
2018-12-07T14:53:20.532Z,993.33
2018-12-07T14:54:20.665Z,993.29
2018-12-07T14:56:13.507Z,993.33
2018-12-07T14:57:13.629Z,993.38
2018-12-07T14:59:06.722Z,993.18
2018-12-07T15:00:06.765Z,993.17
2018-12-07T15:01:59.789Z,993.07
2018-12-07T15:02:59.797Z,993.07
2018-12-07T15:04:53.333Z,993.03
2018-12-07T15:05:53.467Z,993.02
2018-12-07T15:07:46.367Z,993.06
2018-12-07T15:08:46.415Z,993.07
2018-12-07T15:10:39.375Z,992.99
2018-12-07T15:11:39.399Z,992.88
2018-12-07T15:13:32.260Z,992.87
2018-12-07T15:14:32.381Z,992.81
2018-12-07T15:16:25.330Z,992.74
2018-12-07T15:17:25.668Z,992.72
2018-12-07T15:19:18.506Z,992.56
2018-12-07T15:20:18.599Z,992.57
2018-12-07T15:22:11.609Z,992.60
2018-12-07T15:23:11.479Z,992.62
2018-12-07T15:25:04.471Z,992.56
2018-12-07T15:26:04.714Z,992.56
2018-12-07T15:27:57.659Z,992.45
2018-12-07T15:28:57.651Z,992.53
2018-12-07T15:30:50.625Z,992.49
2018-12-07T15:31:50.747Z,992.49
2018-12-07T15:33:43.569Z,992.38
2018-12-07T15:34:43.760Z,992.46
2018-12-07T15:36:36.721Z,992.37
2018-12-07T15:37:36.710Z,992.31
2018-12-07T15:39:29.882Z,992.33
2018-12-07T15:40:29.891Z,992.27
2018-12-07T15:42:22.700Z,992.32
2018-12-07T15:43:22.771Z,992.27
2018-12-07T15:45:15.909Z,992.26
2018-12-07T15:46:16.016Z,992.31
2018-12-07T15:48:08.978Z,992.25
2018-12-07T15:49:09.028Z,992.18
2018-12-07T15:51:01.814Z,992.25
2018-12-07T15:52:02.023Z,992.22
2018-12-07T15:53:55.032Z,992.11
2018-12-07T15:54:55.054Z,992.10
2018-12-07T15:56:47.906Z,992.06
2018-12-07T15:57:47.953Z,992.00
2018-12-07T15:59:41.207Z,992.02
2018-12-07T16:00:41.002Z,992.01
2018-12-07T16:02:34.158Z,992.07
2018-12-07T16:03:34.059Z,991.98
2018-12-07T16:05:27.035Z,991.96
2018-12-07T16:06:27.088Z,991.94
2018-12-07T16:08:24.967Z,991.96
2018-12-07T16:09:20.367Z,991.91
2018-12-07T16:11:13.265Z,991.94
2018-12-07T16:12:13.230Z,991.91
2018-12-07T16:14:06.124Z,991.89
2018-12-07T16:15:06.189Z,991.85
2018-12-07T16:16:59.253Z,991.84
2018-12-07T16:17:59.414Z,991.86
2018-12-07T16:19:52.366Z,991.84
2018-12-07T16:20:52.242Z,991.74
2018-12-07T16:22:45.354Z,991.72
2018-12-07T16:23:45.538Z,991.65
2018-12-07T16:25:38.312Z,991.67
2018-12-07T16:26:38.639Z,991.66
2018-12-07T16:28:31.463Z,991.56
2018-12-07T16:29:31.458Z,991.63
2018-12-07T16:31:24.420Z,991.51
2018-12-07T16:32:24.539Z,991.47
2018-12-07T16:34:17.530Z,991.49
2018-12-07T16:35:17.477Z,991.42
2018-12-07T16:37:10.538Z,991.39
2018-12-07T16:38:10.570Z,991.35
2018-12-07T16:40:03.491Z,991.29
2018-12-07T16:41:03.824Z,991.23
2018-12-07T16:42:56.501Z,991.23
2018-12-07T16:43:56.776Z,991.21
2018-12-07T16:45:49.525Z,991.13
2018-12-07T16:46:49.747Z,991.14
2018-12-07T16:48:42.703Z,991.08
2018-12-07T16:49:42.651Z,991.05
2018-12-07T16:51:35.618Z,991.10
2018-12-07T16:52:35.873Z,991.08
2018-12-07T16:54:28.686Z,991.03
2018-12-07T16:55:28.947Z,991.07
2018-12-07T16:57:21.699Z,991.01
2018-12-07T16:58:22.056Z,990.94
2018-12-07T17:00:14.746Z,990.91
2018-12-07T17:01:14.960Z,990.88
2018-12-07T17:03:07.805Z,990.87
2018-12-07T17:04:07.939Z,990.83
2018-12-07T17:06:00.917Z,990.80
2018-12-07T17:07:00.888Z,990.77
2018-12-07T17:08:53.975Z,990.80
2018-12-07T17:09:54.045Z,990.75
2018-12-07T17:11:47.076Z,990.65
2018-12-07T17:12:46.969Z,990.69
2018-12-07T17:14:39.972Z,990.62
2018-12-07T17:15:40.401Z,990.69
2018-12-07T17:17:33.012Z,990.65
2018-12-07T17:18:33.120Z,990.67
2018-12-07T17:20:26.318Z,990.57
2018-12-07T17:21:26.113Z,990.51
2018-12-07T17:23:19.123Z,990.56
2018-12-07T17:24:19.220Z,990.54
2018-12-07T17:26:12.367Z,990.47
2018-12-07T17:27:12.189Z,990.51
2018-12-07T17:29:05.258Z,990.41
2018-12-07T17:30:05.201Z,990.52
2018-12-07T17:31:58.197Z,990.52
2018-12-07T17:32:58.276Z,990.41
2018-12-07T17:34:51.263Z,990.48
2018-12-07T17:35:51.471Z,990.43
2018-12-07T17:37:44.297Z,990.47
2018-12-07T17:38:44.286Z,990.45